Lincoln Airport
KLNK : now visible

Airfield :











YOU CAN JOIN US ON...

 
LOGIN :

Register | Disclaimer

   EN    FR    IT 

 









Legend :    VFR   Marginal VFR   IFR   Intensive IFR   Very Intensive IFR
Visi :
Ceiling :
>= 8 km
>= 3000ft
5 to 8 km
1000 to 3000 ft
1500m to 5 km
500 to 1000 ft
800 to 1500m
200 to 500 ft
< 800m
< 200 ft
Symbols :   Thunderstorms  Fog  Heavy snow  Heavy precipitations  Wind > 20 kt






- Airport Elevation : 1219 ft
- IATA code : LNK


KLNK - Lincoln

CURRENT METAR :
  • 041354Z 17009KT 10SM FEW100 22/15 A3011 RMK AO2 SLP189 T02170150

EXPIRED METARs :
  • 041254Z 16009KT 10SM FEW095 19/14 A3012 RMK AO2 SLP189 T01890139
  • 041154Z 17007KT 10SM BKN085 18/14 A3012 RMK AO2 SLP190 T01830139 10217 20167 53004

TAF KLNK
Valid from the 04 at 14:00 until the 05 at 12:00 UTC


041414Z 0414/0512 17012KT P6SM SCT080
FM041700 16014G22KT P6SM SCT080
FM050000 15012KT P6SM SCT080
FM050200 14010KT P6SM VCSH SCT050 BKN080
FM050600 VRB04KT P6SM BKN080
KZMP FIR / North America



MET'MAP, your aeronautical weather chart ! - Copyright ORBIFLY December 2007 - Disclaimer

ORBIFLY MET'MAP TEAM :

Programming & Development : Alexandra Zaïnal
Concept & original design : Baudouin d'Aumeries
Assistance for programming : Marc-Olivier Méhu
Technical & hardware support : Manuel Goepfert

Contact : metmap@orbifly.com




SOURCES & CREDITS :

   NOAA       Earth
Advisory